Allons, TN (38541)

3:31 PM CDT on August 01, 2015 (GMT -0500)
On the Square | | Change Station
CLOSE
Current Station
Personal Weather Station
Location: Celina, TN
Elevation: 574 ft
Nearby Weather Stations

Elev 574 ft 36.55 °N, 85.50 °W | Updated 56 seconds ago

Clear
Clear
87.5 °F
Feels Like 92 °F
N
0.0
Wind Variable Wind from East
Gusts 1.0 mph

Today
High -- | Low -- °F
--% Chance of Precip.
Yesterday
High -- | Low -- °F
Precip. -- in
5:47 AM 7:47 PM
Full, 97% visible
Pressure 29.99 in
Visibility 10.0 miles
Clouds Clear
Heat Index 92 °F
Dew Point 70 °F
Humidity 56%
Rainfall 0.00 in
Snow Depth Not available.
UV 8 out of 12
Pollen 4.40 out of 12
Air Quality Not available.
Flu Activity Not available.
METAR KSRB 012015Z AUTO 34007KT 10SM CLR 33/19 A2999 RMK

More Conditions Fewer Conditions

Pressure 29.99 in
Visibility 10.0 miles
Clouds Clear
Heat Index 92 °F
Dew Point 70 °F
Humidity 56%
Rainfall 0.00 in
Snow Depth Not available.
UV 8 out of 12
Pollen 4.40 out of 12
Air Quality Not available.
Flu Activity Not available.
METAR KSRB 012015Z AUTO 34007KT 10SM CLR 33/19 A2999 RMK

More Conditions Fewer Conditions

10-Day Weather Forecast

×

Almanac

Astronomy

Aug. 01, 2015 Rise Set
Actual Time
Civil Twilight
Nautical Twilight
Astronomical Twilight
Moon
Length of Visible Light
Length of Day
Tomorrow will be .
, % of the Moon is Illuminated

Today's Extremes

State Highs State Lows

Community

WunderPhotos

Upload Photos

1,843,050 photos uploaded!

WunderBlogs® & News

Nearby

Air Quality

  Air Quality AQ Index Pollutant
Not available.

Snow Depth

Station Depth Elevation

Earthquake Activity

City Distance Mag. Time & Date
Minimum magnitude displayed is 2.5.

Coastal Water Temperatures

Place Temperature

Stations

Nearby Weather Stations

Station Location Temp. Windchill Dew Point Humidity Wind Precip. Elev Updated Type